Terminal Aerodrome Forecast
Issued by NWS Atlanta, GA

Home | Current Version | Previous Version | Text Only | Print | Product List | Glossary On
Versions: 1 2 3 4 5 6 7 8 9 10 11 12 13
045
FTUS42 KFFC 101733
TAFCSG
TAF
KCSG 101733Z 1018/1118 06005KT P6SM SKC
     FM111100 09005KT P6SM BKN025
     FM111400 09006KT P6SM BKN015=

USA.gov is the U.S. government's official web portal to all federal, state and local government web resources and services.